Tenbury, United Kingdom
Current Conditions -  °F | °C
As of 4:50 AM on Friday 28 Nov 2014 (Local Time) from EGOS Reporting Station
Haze Haze  
Wind Chill: 46°   Ceiling: 1600
Heat Index: 48°   Visibility: 3mi
Dew Point: 46°   Wind: 6mph
Humidity: 93%   Direction: 80°E
Pressure: 29.59"   Gusts: NA
Location:  52.3°N, 2.58°W
Report Text: EGOS 280450Z AUTO 08005KT 5000 BR SCT005/// BKN016/// 09/08 Q1002
Loading
Personal Weather Stations






























Interactive Weather Map New forecast layout! Learn more

10-Day Weather Forecast

Advertisements
Track Severe Weather on mobile